Aeroporto :
LOGIN :

Iscrizione | Disclaimer

   EN    FR    IT 

 










Sommario :    VFR   VFR Marginale   IFR   IFR Intensivo   IFR Molto Intensivo
Visibilità : 
Base nubi : 
>= 8 km
>= 3000ft
5 / 8 km
1000 / 3000 ft
1500m / 5 km
500 / 1000 ft
800 / 1500m
200 / 500 ft
< 800m
< 200 ft
Simboli :   Temporali  Nebbia  Neve Forte  Precipitazioni Forti  Vento > 20 kt
SIGMETs :   Varie  Temporali  Ghiacco  Turbolenza  Onda orograficha  Ceneri Vulcaniche






- Altitudine del aeroporto : 1249 ft


ETSN - Neuburg AB

ULTIMO METAR :
  • 122020Z VRB01KT 9999 SCT050 BKN110 03/02 Q1005 BLU FCST CANCEL

METARs OBSOLETI :
  • 121920Z VRB01KT 9999 SCT050 BKN110 04/02 Q1005 BLU BLU
  • 121820Z 13004KT 9999 SCT048 BKN120 04/03 Q1006 BLU BLU

TAF TAF ETSN
Valido dal 12 a 21 ore il 13 a 06 ore UTC


122008Z 1221/1306 VRB02KT 9999 NSW SCT040 BKN100
PROB30 1221/1301 VRB03KT 7000 -RA SCT020 BKN040
BECMG 1301/1303 23003KT 7000 -RA BKN020 OVC040
TEMPO 1303/1306 22006KT 4000 -RASN BKN010 BKN020 BY ETGL



MetMap, La meteo Aeronautica in un colpo d'occhio ! - Copyright ORBIFLY Dicembre 2007 - Disclaimer

ORBIFLY MET'MAP TEAM :

Programmazione e sviluppo : Alexandra Zaïnal
Concezione e sviluppo : Baudouin d'Aumeries
Co-Programmazione e sviluppo : Marc-Olivier Méhu
Supporto tecnico e logistico : Manuel Goepfert
Aiuto per la traduzione : Arnaldo La Scala

Contatto : metmap@orbifly.com




FONTI E CREDITI :

   NOAA